sensor_id;sensor_type;location;lat;lon;timestamp;pressure;altitude;pressure_sealevel;temperature;humidity
46682;BME280;34101;53.430;-2.224;2023-07-20T00:01:57;101318.17;;;16.00;71.21
46682;BME280;34101;53.430;-2.224;2023-07-20T00:04:24;101318.63;;;16.04;70.91
46682;BME280;34101;53.430;-2.224;2023-07-20T00:06:52;101317.70;;;15.94;71.41
46682;BME280;34101;53.430;-2.224;2023-07-20T00:09:19;101319.24;;;15.92;71.52
46682;BME280;34101;53.430;-2.224;2023-07-20T00:11:49;101316.20;;;15.88;71.70
46682;BME280;34101;53.430;-2.224;2023-07-20T00:14:17;101314.82;;;15.99;71.62
46682;BME280;34101;53.430;-2.224;2023-07-20T00:16:45;101313.02;;;16.04;71.29
46682;BME280;34101;53.430;-2.224;2023-07-20T00:19:12;101313.80;;;16.08;71.24
46682;BME280;34101;53.430;-2.224;2023-07-20T00:21:40;101315.48;;;16.08;71.24
46682;BME280;34101;53.430;-2.224;2023-07-20T00:24:08;101313.62;;;16.10;70.81
46682;BME280;34101;53.430;-2.224;2023-07-20T00:26:35;101315.00;;;16.11;70.91
46682;BME280;34101;53.430;-2.224;2023-07-20T00:29:02;101315.25;;;16.13;70.71
46682;BME280;34101;53.430;-2.224;2023-07-20T00:31:30;101317.11;;;16.14;70.72
46682;BME280;34101;53.430;-2.224;2023-07-20T00:33:58;101315.74;;;16.13;70.68
46682;BME280;34101;53.430;-2.224;2023-07-20T00:36:25;101315.13;;;16.09;70.78
46682;BME280;34101;53.430;-2.224;2023-07-20T00:38:53;101315.50;;;16.06;70.79
46682;BME280;34101;53.430;-2.224;2023-07-20T00:41:21;101314.41;;;16.04;70.86
46682;BME280;34101;53.430;-2.224;2023-07-20T00:43:48;101312.74;;;16.05;70.84
46682;BME280;34101;53.430;-2.224;2023-07-20T00:46:15;101313.66;;;16.05;70.79
46682;BME280;34101;53.430;-2.224;2023-07-20T00:48:43;101313.52;;;16.04;70.70
46682;BME280;34101;53.430;-2.224;2023-07-20T00:51:11;101315.80;;;15.93;71.15
46682;BME280;34101;53.430;-2.224;2023-07-20T00:53:39;101315.31;;;15.86;71.09
46682;BME280;34101;53.430;-2.224;2023-07-20T00:56:06;101312.38;;;15.80;71.65
46682;BME280;34101;53.430;-2.224;2023-07-20T00:58:34;101312.34;;;15.85;71.41
46682;BME280;34101;53.430;-2.224;2023-07-20T01:01:01;101307.38;;;15.86;71.27
46682;BME280;34101;53.430;-2.224;2023-07-20T01:03:28;101307.36;;;15.83;71.64
46682;BME280;34101;53.430;-2.224;2023-07-20T01:06:04;101304.23;;;15.86;71.35
46682;BME280;34101;53.430;-2.224;2023-07-20T01:08:47;101302.44;;;15.95;70.85
46682;BME280;34101;53.430;-2.224;2023-07-20T01:11:23;101301.12;;;15.95;70.87
46682;BME280;34101;53.430;-2.224;2023-07-20T01:13:51;101298.99;;;15.99;70.82
46682;BME280;34101;53.430;-2.224;2023-07-20T01:16:18;101300.68;;;16.02;70.56
46682;BME280;34101;53.430;-2.224;2023-07-20T01:18:45;101300.12;;;16.00;70.62
46682;BME280;34101;53.430;-2.224;2023-07-20T01:21:21;101298.91;;;15.97;70.55
46682;BME280;34101;53.430;-2.224;2023-07-20T01:24:26;101294.42;;;15.92;70.51
46682;BME280;34101;53.430;-2.224;2023-07-20T01:27:17;101289.06;;;15.95;70.40
46682;BME280;34101;53.430;-2.224;2023-07-20T01:30:06;101289.73;;;15.95;70.22
46682;BME280;34101;53.430;-2.224;2023-07-20T01:32:37;101290.78;;;15.83;70.65
46682;BME280;34101;53.430;-2.224;2023-07-20T01:35:07;101291.21;;;15.91;70.63
46682;BME280;34101;53.430;-2.224;2023-07-20T01:37:36;101291.34;;;15.94;70.31
46682;BME280;34101;53.430;-2.224;2023-07-20T01:40:06;101291.50;;;15.82;70.62
46682;BME280;34101;53.430;-2.224;2023-07-20T01:42:33;101291.20;;;15.86;70.52
46682;BME280;34101;53.430;-2.224;2023-07-20T01:45:01;101290.06;;;15.87;70.52
46682;BME280;34101;53.430;-2.224;2023-07-20T01:47:28;101286.37;;;15.91;70.44
46682;BME280;34101;53.430;-2.224;2023-07-20T01:49:56;101286.19;;;15.94;70.46
46682;BME280;34101;53.430;-2.224;2023-07-20T01:52:23;101286.82;;;15.94;70.27
46682;BME280;34101;53.430;-2.224;2023-07-20T01:54:50;101286.43;;;15.93;70.41
46682;BME280;34101;53.430;-2.224;2023-07-20T01:57:18;101281.07;;;15.96;70.34
46682;BME280;34101;53.430;-2.224;2023-07-20T01:59:47;101280.86;;;15.99;70.31
46682;BME280;34101;53.430;-2.224;2023-07-20T02:02:15;101277.72;;;15.96;70.25
46682;BME280;34101;53.430;-2.224;2023-07-20T02:04:42;101277.42;;;15.99;70.38
46682;BME280;34101;53.430;-2.224;2023-07-20T02:07:10;101273.10;;;16.02;70.23
46682;BME280;34101;53.430;-2.224;2023-07-20T02:09:37;101272.88;;;15.95;70.39
46682;BME280;34101;53.430;-2.224;2023-07-20T02:12:05;101268.35;;;15.94;70.45
46682;BME280;34101;53.430;-2.224;2023-07-20T02:14:33;101270.80;;;15.94;70.34
46682;BME280;34101;53.430;-2.224;2023-07-20T02:17:01;101267.25;;;15.93;70.48
46682;BME280;34101;53.430;-2.224;2023-07-20T02:19:30;101267.04;;;15.97;70.39
46682;BME280;34101;53.430;-2.224;2023-07-20T02:21:58;101269.51;;;15.97;70.15
46682;BME280;34101;53.430;-2.224;2023-07-20T02:24:25;101264.88;;;15.94;70.54
46682;BME280;34101;53.430;-2.224;2023-07-20T02:26:53;101265.00;;;15.96;70.40
46682;BME280;34101;53.430;-2.224;2023-07-20T02:29:20;101263.35;;;15.97;70.25
46682;BME280;34101;53.430;-2.224;2023-07-20T02:31:48;101264.27;;;15.98;70.29
46682;BME280;34101;53.430;-2.224;2023-07-20T02:34:16;101260.85;;;16.04;70.27
46682;BME280;34101;53.430;-2.224;2023-07-20T02:36:44;101262.97;;;16.01;70.34
46682;BME280;34101;53.430;-2.224;2023-07-20T02:39:11;101263.46;;;16.00;70.15
46682;BME280;34101;53.430;-2.224;2023-07-20T02:41:39;101261.79;;;15.91;70.67
46682;BME280;34101;53.430;-2.224;2023-07-20T02:44:06;101258.47;;;15.91;70.70
46682;BME280;34101;53.430;-2.224;2023-07-20T02:46:34;101256.09;;;15.88;70.55
46682;BME280;34101;53.430;-2.224;2023-07-20T02:49:02;101256.11;;;15.84;70.80
46682;BME280;34101;53.430;-2.224;2023-07-20T02:51:29;101253.59;;;15.81;70.88
46682;BME280;34101;53.430;-2.224;2023-07-20T02:53:57;101251.85;;;15.79;70.79
46682;BME280;34101;53.430;-2.224;2023-07-20T02:56:24;101250.60;;;15.67;71.44
46682;BME280;34101;53.430;-2.224;2023-07-20T02:58:52;101248.21;;;15.70;71.30
46682;BME280;34101;53.430;-2.224;2023-07-20T03:01:20;101248.31;;;15.67;71.31
46682;BME280;34101;53.430;-2.224;2023-07-20T03:03:48;101247.86;;;15.66;71.36
46682;BME280;34101;53.430;-2.224;2023-07-20T03:06:16;101244.23;;;15.68;71.50
46682;BME280;34101;53.430;-2.224;2023-07-20T03:08:44;101243.66;;;15.73;71.10
46682;BME280;34101;53.430;-2.224;2023-07-20T03:11:11;101242.69;;;15.69;71.55
46682;BME280;34101;53.430;-2.224;2023-07-20T03:13:39;101240.03;;;15.69;71.40
46682;BME280;34101;53.430;-2.224;2023-07-20T03:16:06;101238.45;;;15.66;71.43
46682;BME280;34101;53.430;-2.224;2023-07-20T03:18:34;101235.96;;;15.66;71.37
46682;BME280;34101;53.430;-2.224;2023-07-20T03:21:01;101238.39;;;15.62;71.62
46682;BME280;34101;53.430;-2.224;2023-07-20T03:23:28;101235.16;;;15.60;71.70
46682;BME280;34101;53.430;-2.224;2023-07-20T03:25:56;101237.09;;;15.64;71.73
46682;BME280;34101;53.430;-2.224;2023-07-20T03:28:23;101237.46;;;15.64;71.67
46682;BME280;34101;53.430;-2.224;2023-07-20T03:30:53;101236.56;;;15.62;71.60
46682;BME280;34101;53.430;-2.224;2023-07-20T03:33:22;101235.65;;;15.60;71.66
46682;BME280;34101;53.430;-2.224;2023-07-20T03:35:50;101235.11;;;15.60;71.54
46682;BME280;34101;53.430;-2.224;2023-07-20T03:38:19;101233.89;;;15.50;71.73
46682;BME280;34101;53.430;-2.224;2023-07-20T03:40:54;101230.61;;;15.48;72.05
46682;BME280;34101;53.430;-2.224;2023-07-20T03:43:22;101226.95;;;15.53;72.01
46682;BME280;34101;53.430;-2.224;2023-07-20T03:45:51;101226.93;;;15.59;71.70
46682;BME280;34101;53.430;-2.224;2023-07-20T03:48:20;101227.36;;;15.60;71.50
46682;BME280;34101;53.430;-2.224;2023-07-20T03:50:50;101228.51;;;15.60;71.54
46682;BME280;34101;53.430;-2.224;2023-07-20T03:53:18;101231.76;;;15.60;71.55
46682;BME280;34101;53.430;-2.224;2023-07-20T03:55:46;101231.71;;;15.62;71.50
46682;BME280;34101;53.430;-2.224;2023-07-20T03:58:15;101232.87;;;15.66;71.30
46682;BME280;34101;53.430;-2.224;2023-07-20T04:00:45;101233.16;;;15.68;71.47
46682;BME280;34101;53.430;-2.224;2023-07-20T04:03:14;101232.25;;;15.72;71.27
46682;BME280;34101;53.430;-2.224;2023-07-20T04:05:42;101230.86;;;15.75;71.17
46682;BME280;34101;53.430;-2.224;2023-07-20T04:08:10;101230.39;;;15.79;71.00
46682;BME280;34101;53.430;-2.224;2023-07-20T04:10:38;101228.92;;;15.79;70.95
46682;BME280;34101;53.430;-2.224;2023-07-20T04:13:06;101228.07;;;15.76;70.87
46682;BME280;34101;53.430;-2.224;2023-07-20T04:15:33;101227.69;;;15.76;71.02
46682;BME280;34101;53.430;-2.224;2023-07-20T04:18:08;101227.91;;;15.81;70.75
46682;BME280;34101;53.430;-2.224;2023-07-20T04:20:39;101229.37;;;15.80;70.86
46682;BME280;34101;53.430;-2.224;2023-07-20T04:23:07;101230.67;;;15.80;70.93
46682;BME280;34101;53.430;-2.224;2023-07-20T04:25:35;101226.64;;;15.85;70.77
46682;BME280;34101;53.430;-2.224;2023-07-20T04:28:03;101224.69;;;15.84;70.47
46682;BME280;34101;53.430;-2.224;2023-07-20T04:30:31;101229.57;;;15.82;70.65
46682;BME280;34101;53.430;-2.224;2023-07-20T04:32:58;101227.52;;;15.85;70.66
46682;BME280;34101;53.430;-2.224;2023-07-20T04:35:59;101224.39;;;15.87;70.64
46682;BME280;34101;53.430;-2.224;2023-07-20T04:38:26;101223.25;;;15.90;70.60
46682;BME280;34101;53.430;-2.224;2023-07-20T04:40:53;101222.33;;;15.89;70.52
46682;BME280;34101;53.430;-2.224;2023-07-20T04:43:21;101223.77;;;15.89;70.53
46682;BME280;34101;53.430;-2.224;2023-07-20T04:45:48;101222.25;;;15.86;70.60
46682;BME280;34101;53.430;-2.224;2023-07-20T04:48:16;101221.97;;;15.90;70.62
46682;BME280;34101;53.430;-2.224;2023-07-20T04:50:45;101221.39;;;15.92;70.49
46682;BME280;34101;53.430;-2.224;2023-07-20T04:53:13;101220.88;;;15.97;70.48
46682;BME280;34101;53.430;-2.224;2023-07-20T04:55:48;101222.77;;;15.96;70.43
46682;BME280;34101;53.430;-2.224;2023-07-20T04:58:16;101223.34;;;15.99;70.43
46682;BME280;34101;53.430;-2.224;2023-07-20T05:00:44;101222.25;;;16.00;70.37
46682;BME280;34101;53.430;-2.224;2023-07-20T05:03:18;101222.02;;;16.03;70.25
46682;BME280;34101;53.430;-2.224;2023-07-20T05:05:46;101223.66;;;16.06;70.20
46682;BME280;34101;53.430;-2.224;2023-07-20T05:08:14;101224.10;;;16.06;70.28
46682;BME280;34101;53.430;-2.224;2023-07-20T05:10:42;101225.85;;;16.07;70.16
46682;BME280;34101;53.430;-2.224;2023-07-20T05:13:09;101224.47;;;16.12;70.15
46682;BME280;34101;53.430;-2.224;2023-07-20T05:15:36;101223.07;;;16.16;69.90
46682;BME280;34101;53.430;-2.224;2023-07-20T05:18:04;101224.32;;;16.16;70.23
46682;BME280;34101;53.430;-2.224;2023-07-20T05:20:32;101223.73;;;16.25;69.94
46682;BME280;34101;53.430;-2.224;2023-07-20T05:23:00;101222.90;;;16.30;69.84
46682;BME280;34101;53.430;-2.224;2023-07-20T05:25:27;101224.87;;;16.32;69.76
46682;BME280;34101;53.430;-2.224;2023-07-20T05:27:55;101221.91;;;16.30;69.77
46682;BME280;34101;53.430;-2.224;2023-07-20T05:30:22;101225.17;;;16.28;69.80
46682;BME280;34101;53.430;-2.224;2023-07-20T05:32:50;101225.13;;;16.13;70.41
46682;BME280;34101;53.430;-2.224;2023-07-20T05:35:17;101223.45;;;16.20;70.23
46682;BME280;34101;53.430;-2.224;2023-07-20T05:37:45;101225.42;;;16.18;70.14
46682;BME280;34101;53.430;-2.224;2023-07-20T05:40:14;101223.55;;;16.20;70.34
46682;BME280;34101;53.430;-2.224;2023-07-20T05:42:42;101224.09;;;16.26;70.23
46682;BME280;34101;53.430;-2.224;2023-07-20T05:45:10;101224.00;;;16.28;70.01
46682;BME280;34101;53.430;-2.224;2023-07-20T05:47:38;101221.71;;;16.23;70.27
46682;BME280;34101;53.430;-2.224;2023-07-20T05:50:06;101222.75;;;16.23;70.56
46682;BME280;34101;53.430;-2.224;2023-07-20T05:52:34;101221.47;;;16.37;70.14
46682;BME280;34101;53.430;-2.224;2023-07-20T05:55:01;101220.25;;;16.49;69.95
46682;BME280;34101;53.430;-2.224;2023-07-20T05:57:28;101221.51;;;16.51;69.79
46682;BME280;34101;53.430;-2.224;2023-07-20T05:59:56;101224.00;;;16.60;69.87
46682;BME280;34101;53.430;-2.224;2023-07-20T06:02:23;101222.30;;;16.65;69.88
46682;BME280;34101;53.430;-2.224;2023-07-20T06:04:51;101221.27;;;16.74;69.46
46682;BME280;34101;53.430;-2.224;2023-07-20T06:07:19;101222.91;;;16.78;69.36
46682;BME280;34101;53.430;-2.224;2023-07-20T06:09:46;101221.06;;;16.85;69.07
46682;BME280;34101;53.430;-2.224;2023-07-20T06:12:13;101221.06;;;16.84;68.96
46682;BME280;34101;53.430;-2.224;2023-07-20T06:14:41;101223.90;;;16.95;68.84
46682;BME280;34101;53.430;-2.224;2023-07-20T06:17:08;101224.52;;;16.98;68.63
46682;BME280;34101;53.430;-2.224;2023-07-20T06:19:36;101229.40;;;17.00;68.84
46682;BME280;34101;53.430;-2.224;2023-07-20T06:22:04;101225.45;;;17.08;68.62
46682;BME280;34101;53.430;-2.224;2023-07-20T06:24:31;101225.54;;;17.03;68.84
46682;BME280;34101;53.430;-2.224;2023-07-20T06:26:59;101219.52;;;17.19;68.68
46682;BME280;34101;53.430;-2.224;2023-07-20T06:29:26;101218.16;;;17.32;68.30
46682;BME280;34101;53.430;-2.224;2023-07-20T06:31:53;101220.08;;;17.37;67.97
46682;BME280;34101;53.430;-2.224;2023-07-20T06:34:21;101218.88;;;17.42;67.64
46682;BME280;34101;53.430;-2.224;2023-07-20T06:36:48;101222.41;;;17.49;67.66
46682;BME280;34101;53.430;-2.224;2023-07-20T06:39:16;101221.51;;;17.53;66.48
46682;BME280;34101;53.430;-2.224;2023-07-20T06:41:43;101218.63;;;17.50;67.05
46682;BME280;34101;53.430;-2.224;2023-07-20T06:44:10;101219.82;;;17.63;66.93
46682;BME280;34101;53.430;-2.224;2023-07-20T06:46:38;101220.51;;;17.72;66.32
46682;BME280;34101;53.430;-2.224;2023-07-20T06:49:07;101220.96;;;17.73;66.32
46682;BME280;34101;53.430;-2.224;2023-07-20T06:51:34;101221.32;;;17.89;66.04
46682;BME280;34101;53.430;-2.224;2023-07-20T06:54:02;101222.46;;;17.82;65.76
46682;BME280;34101;53.430;-2.224;2023-07-20T06:56:30;101221.48;;;17.82;65.31
46682;BME280;34101;53.430;-2.224;2023-07-20T06:58:57;101221.28;;;17.87;65.29
46682;BME280;34101;53.430;-2.224;2023-07-20T07:01:24;101220.89;;;17.91;64.88
46682;BME280;34101;53.430;-2.224;2023-07-20T07:03:52;101217.64;;;18.02;64.79
46682;BME280;34101;53.430;-2.224;2023-07-20T07:06:19;101219.04;;;18.03;64.76
46682;BME280;34101;53.430;-2.224;2023-07-20T07:08:46;101219.90;;;17.92;64.63
46682;BME280;34101;53.430;-2.224;2023-07-20T07:11:14;101219.57;;;17.97;64.47
46682;BME280;34101;53.430;-2.224;2023-07-20T07:13:41;101217.98;;;18.04;64.19
46682;BME280;34101;53.430;-2.224;2023-07-20T07:16:08;101223.62;;;18.23;63.20
46682;BME280;34101;53.430;-2.224;2023-07-20T07:18:36;101223.85;;;18.31;63.03
46682;BME280;34101;53.430;-2.224;2023-07-20T07:21:04;101225.88;;;18.36;63.35
46682;BME280;34101;53.430;-2.224;2023-07-20T07:23:31;101228.42;;;18.21;63.58
46682;BME280;34101;53.430;-2.224;2023-07-20T07:25:59;101232.06;;;18.46;62.81
46682;BME280;34101;53.430;-2.224;2023-07-20T07:28:26;101232.06;;;18.47;61.93
46682;BME280;34101;53.430;-2.224;2023-07-20T07:30:55;101231.95;;;18.50;62.21
46682;BME280;34101;53.430;-2.224;2023-07-20T07:33:22;101229.52;;;18.77;61.80
46682;BME280;34101;53.430;-2.224;2023-07-20T07:35:50;101233.75;;;18.82;61.53
46682;BME280;34101;53.430;-2.224;2023-07-20T07:38:18;101233.24;;;18.64;62.12
46682;BME280;34101;53.430;-2.224;2023-07-20T07:40:46;101234.03;;;18.81;61.12
46682;BME280;34101;53.430;-2.224;2023-07-20T07:43:13;101233.78;;;18.91;60.21
46682;BME280;34101;53.430;-2.224;2023-07-20T07:45:41;101229.97;;;18.97;60.39
46682;BME280;34101;53.430;-2.224;2023-07-20T07:48:08;101226.89;;;19.06;59.75
46682;BME280;34101;53.430;-2.224;2023-07-20T07:50:36;101227.12;;;19.05;59.14
46682;BME280;34101;53.430;-2.224;2023-07-20T07:53:05;101225.96;;;19.03;59.03
46682;BME280;34101;53.430;-2.224;2023-07-20T07:55:32;101225.99;;;19.11;58.56
46682;BME280;34101;53.430;-2.224;2023-07-20T07:58:00;101227.90;;;18.94;58.33
46682;BME280;34101;53.430;-2.224;2023-07-20T08:00:29;101230.10;;;18.91;57.92
46682;BME280;34101;53.430;-2.224;2023-07-20T08:02:57;101232.32;;;19.22;57.90
46682;BME280;34101;53.430;-2.224;2023-07-20T08:05:25;101225.89;;;19.35;57.43
46682;BME280;34101;53.430;-2.224;2023-07-20T08:07:52;101226.04;;;19.68;56.93
46682;BME280;34101;53.430;-2.224;2023-07-20T08:10:20;101224.46;;;19.81;55.70
46682;BME280;34101;53.430;-2.224;2023-07-20T08:12:48;101226.53;;;19.95;55.58
46682;BME280;34101;53.430;-2.224;2023-07-20T08:15:15;101230.46;;;20.12;55.36
46682;BME280;34101;53.430;-2.224;2023-07-20T08:17:43;101228.61;;;20.24;53.86
46682;BME280;34101;53.430;-2.224;2023-07-20T08:20:13;101224.52;;;20.28;53.32
46682;BME280;34101;53.430;-2.224;2023-07-20T08:22:41;101223.51;;;20.47;53.13
46682;BME280;34101;53.430;-2.224;2023-07-20T08:25:09;101224.27;;;20.31;53.86
46682;BME280;34101;53.430;-2.224;2023-07-20T08:27:37;101221.27;;;20.30;52.17
46682;BME280;34101;53.430;-2.224;2023-07-20T08:30:06;101217.26;;;20.10;51.66
46682;BME280;34101;53.430;-2.224;2023-07-20T08:32:34;101217.76;;;20.40;51.12
46682;BME280;34101;53.430;-2.224;2023-07-20T08:35:02;101217.01;;;20.62;50.55
46682;BME280;34101;53.430;-2.224;2023-07-20T08:37:29;101215.33;;;20.59;50.99
46682;BME280;34101;53.430;-2.224;2023-07-20T08:39:56;101217.15;;;20.76;50.55
46682;BME280;34101;53.430;-2.224;2023-07-20T08:42:24;101211.44;;;20.87;50.28
46682;BME280;34101;53.430;-2.224;2023-07-20T08:44:57;101212.99;;;20.49;49.97
46682;BME280;34101;53.430;-2.224;2023-07-20T08:47:26;101212.44;;;21.01;49.04
46682;BME280;34101;53.430;-2.224;2023-07-20T08:49:59;101212.82;;;21.09;49.58
46682;BME280;34101;53.430;-2.224;2023-07-20T08:52:27;101211.21;;;21.24;48.81
46682;BME280;34101;53.430;-2.224;2023-07-20T08:54:55;101210.70;;;21.05;45.14
46682;BME280;34101;53.430;-2.224;2023-07-20T08:57:22;101207.25;;;21.79;44.04
46682;BME280;34101;53.430;-2.224;2023-07-20T08:59:50;101205.44;;;22.30;41.76
46682;BME280;34101;53.430;-2.224;2023-07-20T09:02:22;101210.67;;;22.78;40.02
46682;BME280;34101;53.430;-2.224;2023-07-20T09:04:52;101209.16;;;22.91;37.90
46682;BME280;34101;53.430;-2.224;2023-07-20T09:07:20;101205.44;;;23.67;37.01
46682;BME280;34101;53.430;-2.224;2023-07-20T09:09:47;101204.33;;;24.34;35.68
46682;BME280;34101;53.430;-2.224;2023-07-20T09:12:16;101203.76;;;24.86;35.99
46682;BME280;34101;53.430;-2.224;2023-07-20T09:14:44;101203.16;;;24.57;34.94
46682;BME280;34101;53.430;-2.224;2023-07-20T09:17:14;101198.51;;;25.51;33.13
46682;BME280;34101;53.430;-2.224;2023-07-20T09:19:46;101201.06;;;25.75;32.81
46682;BME280;34101;53.430;-2.224;2023-07-20T09:22:14;101209.81;;;24.95;32.48
46682;BME280;34101;53.430;-2.224;2023-07-20T09:24:42;101209.21;;;25.31;31.07
46682;BME280;34101;53.430;-2.224;2023-07-20T09:27:10;101211.44;;;26.27;30.47
46682;BME280;34101;53.430;-2.224;2023-07-20T09:29:48;101207.30;;;26.37;29.88
46682;BME280;34101;53.430;-2.224;2023-07-20T09:32:19;101209.50;;;26.11;30.24
46682;BME280;34101;53.430;-2.224;2023-07-20T09:34:47;101216.42;;;25.80;31.00
46682;BME280;34101;53.430;-2.224;2023-07-20T09:37:19;101220.43;;;25.12;31.70
46682;BME280;34101;53.430;-2.224;2023-07-20T09:39:47;101219.83;;;25.06;31.50
46682;BME280;34101;53.430;-2.224;2023-07-20T09:42:14;101218.67;;;24.83;32.74
46682;BME280;34101;53.430;-2.224;2023-07-20T09:44:44;101218.35;;;24.77;32.85
46682;BME280;34101;53.430;-2.224;2023-07-20T09:47:12;101217.28;;;24.85;33.24
46682;BME280;34101;53.430;-2.224;2023-07-20T09:49:42;101216.00;;;25.32;33.05
46682;BME280;34101;53.430;-2.224;2023-07-20T09:52:09;101216.17;;;25.44;32.37
46682;BME280;34101;53.430;-2.224;2023-07-20T09:54:38;101215.09;;;26.35;31.09
46682;BME280;34101;53.430;-2.224;2023-07-20T09:57:07;101214.50;;;25.35;31.39
46682;BME280;34101;53.430;-2.224;2023-07-20T09:59:34;101204.52;;;24.88;32.01
46682;BME280;34101;53.430;-2.224;2023-07-20T10:02:13;101209.50;;;25.46;29.91
46682;BME280;34101;53.430;-2.224;2023-07-20T10:04:46;101207.01;;;25.90;29.54
46682;BME280;34101;53.430;-2.224;2023-07-20T10:07:14;101205.79;;;26.57;28.99
46682;BME280;34101;53.430;-2.224;2023-07-20T10:09:45;101205.00;;;26.44;29.13
46682;BME280;34101;53.430;-2.224;2023-07-20T10:12:12;101208.64;;;26.28;30.05
46682;BME280;34101;53.430;-2.224;2023-07-20T10:14:44;101205.35;;;25.87;30.31
46682;BME280;34101;53.430;-2.224;2023-07-20T10:17:17;101201.30;;;26.23;30.08
46682;BME280;34101;53.430;-2.224;2023-07-20T10:19:49;101200.34;;;26.57;31.15
46682;BME280;34101;53.430;-2.224;2023-07-20T10:22:22;101198.50;;;25.85;29.28
46682;BME280;34101;53.430;-2.224;2023-07-20T10:24:52;101197.44;;;26.61;28.90
46682;BME280;34101;53.430;-2.224;2023-07-20T10:27:21;101196.13;;;27.22;28.46
46682;BME280;34101;53.430;-2.224;2023-07-20T10:29:48;101195.79;;;26.16;28.52
46682;BME280;34101;53.430;-2.224;2023-07-20T10:32:19;101191.49;;;27.80;27.45
46682;BME280;34101;53.430;-2.224;2023-07-20T10:34:50;101196.22;;;27.52;27.46
46682;BME280;34101;53.430;-2.224;2023-07-20T10:37:46;101189.28;;;27.72;27.81
46682;BME280;34101;53.430;-2.224;2023-07-20T10:40:31;101182.18;;;27.07;27.03
46682;BME280;34101;53.430;-2.224;2023-07-20T10:43:03;101189.26;;;28.13;27.91
46682;BME280;34101;53.430;-2.224;2023-07-20T10:45:37;101188.44;;;28.81;26.30
46682;BME280;34101;53.430;-2.224;2023-07-20T10:48:16;101187.41;;;27.73;27.09
46682;BME280;34101;53.430;-2.224;2023-07-20T10:50:45;101187.04;;;27.68;26.82
46682;BME280;34101;53.430;-2.224;2023-07-20T10:53:14;101177.67;;;27.42;26.71
46682;BME280;34101;53.430;-2.224;2023-07-20T10:55:42;101178.27;;;27.89;27.69
46682;BME280;34101;53.430;-2.224;2023-07-20T10:58:11;101178.41;;;28.64;24.50
46682;BME280;34101;53.430;-2.224;2023-07-20T11:00:56;101181.87;;;28.25;25.02
46682;BME280;34101;53.430;-2.224;2023-07-20T11:03:28;101177.47;;;29.01;24.87
46682;BME280;34101;53.430;-2.224;2023-07-20T11:05:57;101176.75;;;29.22;24.62
46682;BME280;34101;53.430;-2.224;2023-07-20T11:08:39;101173.97;;;29.02;25.43
46682;BME280;34101;53.430;-2.224;2023-07-20T11:11:24;101170.81;;;29.24;24.80
46682;BME280;34101;53.430;-2.224;2023-07-20T11:13:57;101166.06;;;29.18;25.08
46682;BME280;34101;53.430;-2.224;2023-07-20T11:16:34;101170.62;;;28.09;26.57
46682;BME280;34101;53.430;-2.224;2023-07-20T11:19:02;101166.15;;;27.62;27.17
46682;BME280;34101;53.430;-2.224;2023-07-20T11:21:36;101171.21;;;27.07;28.28
46682;BME280;34101;53.430;-2.224;2023-07-20T11:24:05;101162.27;;;26.88;28.93
46682;BME280;34101;53.430;-2.224;2023-07-20T11:26:41;101162.78;;;27.82;28.03
46682;BME280;34101;53.430;-2.224;2023-07-20T11:29:09;101160.94;;;26.51;30.44
46682;BME280;34101;53.430;-2.224;2023-07-20T11:31:37;101158.26;;;27.05;29.81
46682;BME280;34101;53.430;-2.224;2023-07-20T11:34:05;101162.30;;;26.93;29.21
46682;BME280;34101;53.430;-2.224;2023-07-20T11:36:34;101154.68;;;26.77;29.86
46682;BME280;34101;53.430;-2.224;2023-07-20T11:39:02;101159.98;;;27.08;30.27
46682;BME280;34101;53.430;-2.224;2023-07-20T11:41:30;101161.70;;;28.36;25.53
46682;BME280;34101;53.430;-2.224;2023-07-20T11:43:58;101152.34;;;28.64;25.20
46682;BME280;34101;53.430;-2.224;2023-07-20T11:46:26;101158.40;;;27.32;27.15
46682;BME280;34101;53.430;-2.224;2023-07-20T11:48:57;101157.49;;;24.99;29.19
46682;BME280;34101;53.430;-2.224;2023-07-20T11:51:25;101162.41;;;23.81;32.07
46682;BME280;34101;53.430;-2.224;2023-07-20T11:53:54;101160.12;;;25.28;30.00
46682;BME280;34101;53.430;-2.224;2023-07-20T11:56:24;101154.79;;;26.09;29.67
46682;BME280;34101;53.430;-2.224;2023-07-20T11:58:55;101160.29;;;25.86;29.13
46682;BME280;34101;53.430;-2.224;2023-07-20T12:01:23;101157.98;;;26.11;29.53
46682;BME280;34101;53.430;-2.224;2023-07-20T12:03:52;101152.41;;;27.09;27.44
46682;BME280;34101;53.430;-2.224;2023-07-20T12:06:28;101149.32;;;26.55;27.37
46682;BME280;34101;53.430;-2.224;2023-07-20T12:08:57;101156.13;;;24.56;30.74
46682;BME280;34101;53.430;-2.224;2023-07-20T12:11:34;101150.91;;;23.89;31.71
46682;BME280;34101;53.430;-2.224;2023-07-20T12:14:02;101151.05;;;23.53;33.52
46682;BME280;34101;53.430;-2.224;2023-07-20T12:16:30;101146.85;;;25.40;31.37
46682;BME280;34101;53.430;-2.224;2023-07-20T12:19:00;101139.73;;;26.72;29.51
46682;BME280;34101;53.430;-2.224;2023-07-20T12:21:28;101140.51;;;26.84;28.46
46682;BME280;34101;53.430;-2.224;2023-07-20T12:23:56;101139.65;;;26.96;27.34
46682;BME280;34101;53.430;-2.224;2023-07-20T12:26:25;101133.81;;;27.53;27.45
46682;BME280;34101;53.430;-2.224;2023-07-20T12:28:53;101127.80;;;27.48;27.99
46682;BME280;34101;53.430;-2.224;2023-07-20T12:31:20;101131.17;;;26.89;28.21
46682;BME280;34101;53.430;-2.224;2023-07-20T12:33:48;101132.35;;;26.27;30.01
46682;BME280;34101;53.430;-2.224;2023-07-20T12:36:16;101135.11;;;25.79;29.48
46682;BME280;34101;53.430;-2.224;2023-07-20T12:38:43;101139.25;;;25.96;29.32
46682;BME280;34101;53.430;-2.224;2023-07-20T12:41:12;101138.86;;;25.75;29.67
46682;BME280;34101;53.430;-2.224;2023-07-20T12:43:40;101134.63;;;25.12;30.52
46682;BME280;34101;53.430;-2.224;2023-07-20T12:46:08;101133.77;;;25.01;31.08
46682;BME280;34101;53.430;-2.224;2023-07-20T12:48:36;101130.83;;;25.54;32.08
46682;BME280;34101;53.430;-2.224;2023-07-20T12:51:04;101125.68;;;25.76;30.99